sensor_id;sensor_type;location;lat;lon;timestamp;temperature;humidity
21678;DHT22;11000;50.360;7.582;2024-02-26T00:00:17;8.10;99.90
21678;DHT22;11000;50.360;7.582;2024-02-26T00:02:39;8.10;99.90
21678;DHT22;11000;50.360;7.582;2024-02-26T00:05:00;8.00;99.90
21678;DHT22;11000;50.360;7.582;2024-02-26T00:07:20;8.10;99.90
21678;DHT22;11000;50.360;7.582;2024-02-26T00:09:41;8.20;99.90
21678;DHT22;11000;50.360;7.582;2024-02-26T00:12:02;8.20;99.90
21678;DHT22;11000;50.360;7.582;2024-02-26T00:14:24;8.20;99.90
21678;DHT22;11000;50.360;7.582;2024-02-26T00:16:44;8.20;99.90
21678;DHT22;11000;50.360;7.582;2024-02-26T00:19:05;8.20;99.90
21678;DHT22;11000;50.360;7.582;2024-02-26T00:21:26;8.10;99.90
21678;DHT22;11000;50.360;7.582;2024-02-26T00:23:46;8.10;99.90
21678;DHT22;11000;50.360;7.582;2024-02-26T00:26:07;8.00;99.90
21678;DHT22;11000;50.360;7.582;2024-02-26T00:28:28;8.00;99.90
21678;DHT22;11000;50.360;7.582;2024-02-26T00:30:49;8.00;99.90
21678;DHT22;11000;50.360;7.582;2024-02-26T00:33:11;8.00;99.90
21678;DHT22;11000;50.360;7.582;2024-02-26T00:35:31;7.90;99.90
21678;DHT22;11000;50.360;7.582;2024-02-26T00:37:51;7.90;99.90
21678;DHT22;11000;50.360;7.582;2024-02-26T00:40:12;7.90;99.90
21678;DHT22;11000;50.360;7.582;2024-02-26T00:42:33;7.90;99.90
21678;DHT22;11000;50.360;7.582;2024-02-26T00:44:53;7.90;99.90
21678;DHT22;11000;50.360;7.582;2024-02-26T00:47:14;7.90;99.90
21678;DHT22;11000;50.360;7.582;2024-02-26T00:49:35;7.80;99.90
21678;DHT22;11000;50.360;7.582;2024-02-26T00:51:56;7.80;99.90
21678;DHT22;11000;50.360;7.582;2024-02-26T00:54:16;7.80;99.90
21678;DHT22;11000;50.360;7.582;2024-02-26T00:56:37;7.70;99.90
21678;DHT22;11000;50.360;7.582;2024-02-26T00:58:58;7.70;99.90
21678;DHT22;11000;50.360;7.582;2024-02-26T01:01:18;7.80;99.90
21678;DHT22;11000;50.360;7.582;2024-02-26T01:03:39;7.70;99.90
21678;DHT22;11000;50.360;7.582;2024-02-26T01:05:59;7.80;99.90
21678;DHT22;11000;50.360;7.582;2024-02-26T01:08:20;7.80;99.90
21678;DHT22;11000;50.360;7.582;2024-02-26T01:10:40;7.80;99.90
21678;DHT22;11000;50.360;7.582;2024-02-26T01:13:01;7.80;99.90
21678;DHT22;11000;50.360;7.582;2024-02-26T01:15:22;7.80;99.90
21678;DHT22;11000;50.360;7.582;2024-02-26T01:17:44;7.80;99.90
21678;DHT22;11000;50.360;7.582;2024-02-26T01:20:05;7.80;99.90
21678;DHT22;11000;50.360;7.582;2024-02-26T01:22:25;7.80;99.90
21678;DHT22;11000;50.360;7.582;2024-02-26T01:24:46;7.80;99.90
21678;DHT22;11000;50.360;7.582;2024-02-26T01:27:07;7.80;99.90
21678;DHT22;11000;50.360;7.582;2024-02-26T01:29:29;7.80;99.90
21678;DHT22;11000;50.360;7.582;2024-02-26T01:31:49;7.80;99.90
21678;DHT22;11000;50.360;7.582;2024-02-26T01:34:10;7.70;99.90
21678;DHT22;11000;50.360;7.582;2024-02-26T01:36:31;7.70;99.90
21678;DHT22;11000;50.360;7.582;2024-02-26T01:38:51;7.70;99.90
21678;DHT22;11000;50.360;7.582;2024-02-26T01:41:13;7.70;99.90
21678;DHT22;11000;50.360;7.582;2024-02-26T01:43:34;7.70;99.90
21678;DHT22;11000;50.360;7.582;2024-02-26T01:45:55;7.70;99.90
21678;DHT22;11000;50.360;7.582;2024-02-26T01:48:16;7.70;99.90
21678;DHT22;11000;50.360;7.582;2024-02-26T01:50:36;7.70;99.90
21678;DHT22;11000;50.360;7.582;2024-02-26T01:52:58;7.70;99.90
21678;DHT22;11000;50.360;7.582;2024-02-26T01:55:19;7.70;99.90
21678;DHT22;11000;50.360;7.582;2024-02-26T01:57:45;7.70;99.90
21678;DHT22;11000;50.360;7.582;2024-02-26T02:00:06;7.70;99.90
21678;DHT22;11000;50.360;7.582;2024-02-26T02:02:28;7.70;99.90
21678;DHT22;11000;50.360;7.582;2024-02-26T02:04:49;7.80;99.90
21678;DHT22;11000;50.360;7.582;2024-02-26T02:07:09;7.80;99.90
21678;DHT22;11000;50.360;7.582;2024-02-26T02:09:30;7.70;99.90
21678;DHT22;11000;50.360;7.582;2024-02-26T02:11:51;7.70;99.90
21678;DHT22;11000;50.360;7.582;2024-02-26T02:14:11;7.60;99.90
21678;DHT22;11000;50.360;7.582;2024-02-26T02:16:32;7.60;99.90
21678;DHT22;11000;50.360;7.582;2024-02-26T02:18:52;7.50;99.90
21678;DHT22;11000;50.360;7.582;2024-02-26T02:21:13;7.60;99.90
21678;DHT22;11000;50.360;7.582;2024-02-26T02:23:33;7.60;99.90
21678;DHT22;11000;50.360;7.582;2024-02-26T02:25:54;7.60;99.90
21678;DHT22;11000;50.360;7.582;2024-02-26T02:28:16;7.60;99.90
21678;DHT22;11000;50.360;7.582;2024-02-26T02:30:38;7.60;99.90
21678;DHT22;11000;50.360;7.582;2024-02-26T02:32:59;7.60;99.90
21678;DHT22;11000;50.360;7.582;2024-02-26T02:35:19;7.70;99.90
21678;DHT22;11000;50.360;7.582;2024-02-26T02:37:40;7.70;99.90
21678;DHT22;11000;50.360;7.582;2024-02-26T02:40:00;7.60;99.90
21678;DHT22;11000;50.360;7.582;2024-02-26T02:42:21;7.60;99.90
21678;DHT22;11000;50.360;7.582;2024-02-26T02:44:41;7.60;99.90
21678;DHT22;11000;50.360;7.582;2024-02-26T02:47:02;7.60;99.90
21678;DHT22;11000;50.360;7.582;2024-02-26T02:49:23;7.60;99.90
21678;DHT22;11000;50.360;7.582;2024-02-26T02:51:44;7.70;99.90
21678;DHT22;11000;50.360;7.582;2024-02-26T02:54:04;7.60;99.90
21678;DHT22;11000;50.360;7.582;2024-02-26T02:56:25;7.60;99.90
21678;DHT22;11000;50.360;7.582;2024-02-26T02:58:45;7.50;99.90
21678;DHT22;11000;50.360;7.582;2024-02-26T03:01:06;7.60;99.90
21678;DHT22;11000;50.360;7.582;2024-02-26T03:03:26;7.60;99.90
21678;DHT22;11000;50.360;7.582;2024-02-26T03:05:48;7.50;99.90
21678;DHT22;11000;50.360;7.582;2024-02-26T03:08:09;7.50;99.90
21678;DHT22;11000;50.360;7.582;2024-02-26T03:10:30;7.50;99.90
21678;DHT22;11000;50.360;7.582;2024-02-26T03:12:50;7.50;99.90
21678;DHT22;11000;50.360;7.582;2024-02-26T03:15:11;7.50;99.90
21678;DHT22;11000;50.360;7.582;2024-02-26T03:17:31;7.50;99.90
21678;DHT22;11000;50.360;7.582;2024-02-26T03:19:52;7.50;99.90
21678;DHT22;11000;50.360;7.582;2024-02-26T03:22:14;7.50;99.90
21678;DHT22;11000;50.360;7.582;2024-02-26T03:24:34;7.50;99.90
21678;DHT22;11000;50.360;7.582;2024-02-26T03:26:55;7.50;99.90
21678;DHT22;11000;50.360;7.582;2024-02-26T03:29:15;7.50;99.90
21678;DHT22;11000;50.360;7.582;2024-02-26T03:31:36;7.50;99.90
21678;DHT22;11000;50.360;7.582;2024-02-26T03:33:56;7.60;99.90
21678;DHT22;11000;50.360;7.582;2024-02-26T03:36:17;7.60;99.90
21678;DHT22;11000;50.360;7.582;2024-02-26T03:38:37;7.60;99.90
21678;DHT22;11000;50.360;7.582;2024-02-26T03:40:58;7.70;99.90
21678;DHT22;11000;50.360;7.582;2024-02-26T03:43:18;7.60;99.90
21678;DHT22;11000;50.360;7.582;2024-02-26T03:45:39;7.60;99.90
21678;DHT22;11000;50.360;7.582;2024-02-26T03:47:59;7.60;99.90
21678;DHT22;11000;50.360;7.582;2024-02-26T03:50:20;7.70;99.90
21678;DHT22;11000;50.360;7.582;2024-02-26T03:52:40;7.60;99.90
21678;DHT22;11000;50.360;7.582;2024-02-26T03:55:01;7.60;99.90
21678;DHT22;11000;50.360;7.582;2024-02-26T03:57:21;7.60;99.90
21678;DHT22;11000;50.360;7.582;2024-02-26T03:59:42;7.60;99.90
21678;DHT22;11000;50.360;7.582;2024-02-26T04:02:02;7.50;99.90
21678;DHT22;11000;50.360;7.582;2024-02-26T04:04:23;7.50;99.90
21678;DHT22;11000;50.360;7.582;2024-02-26T04:06:46;7.50;99.90
21678;DHT22;11000;50.360;7.582;2024-02-26T04:09:07;7.50;99.90
21678;DHT22;11000;50.360;7.582;2024-02-26T04:11:27;7.50;99.90
21678;DHT22;11000;50.360;7.582;2024-02-26T04:13:48;7.50;99.90
21678;DHT22;11000;50.360;7.582;2024-02-26T04:16:12;7.40;99.90
21678;DHT22;11000;50.360;7.582;2024-02-26T04:18:33;7.40;99.90
21678;DHT22;11000;50.360;7.582;2024-02-26T04:20:53;7.40;99.90
21678;DHT22;11000;50.360;7.582;2024-02-26T04:23:14;7.30;99.90
21678;DHT22;11000;50.360;7.582;2024-02-26T04:25:35;7.40;99.90
21678;DHT22;11000;50.360;7.582;2024-02-26T04:27:55;7.30;99.90
21678;DHT22;11000;50.360;7.582;2024-02-26T04:30:16;7.30;99.90
21678;DHT22;11000;50.360;7.582;2024-02-26T04:32:37;7.30;99.90
21678;DHT22;11000;50.360;7.582;2024-02-26T04:34:58;7.30;99.90
21678;DHT22;11000;50.360;7.582;2024-02-26T04:37:18;7.30;99.90
21678;DHT22;11000;50.360;7.582;2024-02-26T04:39:39;7.30;99.90
21678;DHT22;11000;50.360;7.582;2024-02-26T04:41:59;7.30;99.90
21678;DHT22;11000;50.360;7.582;2024-02-26T04:44:21;7.30;99.90
21678;DHT22;11000;50.360;7.582;2024-02-26T04:46:42;7.30;99.90
21678;DHT22;11000;50.360;7.582;2024-02-26T04:49:02;7.30;99.90
21678;DHT22;11000;50.360;7.582;2024-02-26T04:51:23;7.30;99.90
21678;DHT22;11000;50.360;7.582;2024-02-26T04:53:43;7.30;99.90
21678;DHT22;11000;50.360;7.582;2024-02-26T04:56:04;7.20;99.90
21678;DHT22;11000;50.360;7.582;2024-02-26T04:58:24;7.20;99.90
21678;DHT22;11000;50.360;7.582;2024-02-26T05:00:45;7.20;99.90
21678;DHT22;11000;50.360;7.582;2024-02-26T05:03:06;7.20;99.90
21678;DHT22;11000;50.360;7.582;2024-02-26T05:05:28;7.20;99.90
21678;DHT22;11000;50.360;7.582;2024-02-26T05:07:48;7.20;99.90
21678;DHT22;11000;50.360;7.582;2024-02-26T05:10:09;7.10;99.90
21678;DHT22;11000;50.360;7.582;2024-02-26T05:12:30;7.10;99.90
21678;DHT22;11000;50.360;7.582;2024-02-26T05:14:50;7.10;99.90
21678;DHT22;11000;50.360;7.582;2024-02-26T05:17:11;7.10;99.90
21678;DHT22;11000;50.360;7.582;2024-02-26T05:19:31;7.10;99.90
21678;DHT22;11000;50.360;7.582;2024-02-26T05:21:52;7.10;99.90
21678;DHT22;11000;50.360;7.582;2024-02-26T05:24:12;7.10;99.90
21678;DHT22;11000;50.360;7.582;2024-02-26T05:26:35;7.10;99.90
21678;DHT22;11000;50.360;7.582;2024-02-26T05:28:56;7.00;99.90
21678;DHT22;11000;50.360;7.582;2024-02-26T05:31:19;7.00;99.90
21678;DHT22;11000;50.360;7.582;2024-02-26T05:33:40;7.00;99.90
21678;DHT22;11000;50.360;7.582;2024-02-26T05:36:00;7.00;99.90
21678;DHT22;11000;50.360;7.582;2024-02-26T05:38:24;7.00;99.90
21678;DHT22;11000;50.360;7.582;2024-02-26T05:40:44;6.90;99.90
21678;DHT22;11000;50.360;7.582;2024-02-26T05:43:06;6.90;99.90
21678;DHT22;11000;50.360;7.582;2024-02-26T05:45:26;6.90;99.90
21678;DHT22;11000;50.360;7.582;2024-02-26T05:47:47;6.90;99.90
21678;DHT22;11000;50.360;7.582;2024-02-26T05:50:11;6.90;99.90
21678;DHT22;11000;50.360;7.582;2024-02-26T05:52:31;6.80;99.90
21678;DHT22;11000;50.360;7.582;2024-02-26T05:54:53;6.90;99.90
21678;DHT22;11000;50.360;7.582;2024-02-26T05:57:13;6.80;99.90
21678;DHT22;11000;50.360;7.582;2024-02-26T05:59:34;6.80;99.90
21678;DHT22;11000;50.360;7.582;2024-02-26T06:01:54;6.90;99.90
21678;DHT22;11000;50.360;7.582;2024-02-26T06:04:15;6.80;99.90
21678;DHT22;11000;50.360;7.582;2024-02-26T06:06:37;6.80;99.90
21678;DHT22;11000;50.360;7.582;2024-02-26T06:08:57;6.80;99.90
21678;DHT22;11000;50.360;7.582;2024-02-26T06:11:18;6.80;99.90
21678;DHT22;11000;50.360;7.582;2024-02-26T06:13:39;6.80;99.90
21678;DHT22;11000;50.360;7.582;2024-02-26T06:16:00;6.80;99.90
21678;DHT22;11000;50.360;7.582;2024-02-26T06:18:20;6.80;99.90
21678;DHT22;11000;50.360;7.582;2024-02-26T06:20:41;6.80;99.90
21678;DHT22;11000;50.360;7.582;2024-02-26T06:23:01;6.80;99.90
21678;DHT22;11000;50.360;7.582;2024-02-26T06:25:22;6.80;99.90
21678;DHT22;11000;50.360;7.582;2024-02-26T06:27:42;6.80;99.90
21678;DHT22;11000;50.360;7.582;2024-02-26T06:30:03;6.80;99.90
21678;DHT22;11000;50.360;7.582;2024-02-26T06:32:24;6.80;99.90
21678;DHT22;11000;50.360;7.582;2024-02-26T06:34:44;6.80;99.90
21678;DHT22;11000;50.360;7.582;2024-02-26T06:37:05;6.80;99.90
21678;DHT22;11000;50.360;7.582;2024-02-26T06:39:25;6.80;99.90
21678;DHT22;11000;50.360;7.582;2024-02-26T06:41:46;6.80;99.90
21678;DHT22;11000;50.360;7.582;2024-02-26T06:44:07;6.80;99.90
21678;DHT22;11000;50.360;7.582;2024-02-26T06:46:27;6.80;99.90
21678;DHT22;11000;50.360;7.582;2024-02-26T06:48:51;6.80;99.90
21678;DHT22;11000;50.360;7.582;2024-02-26T06:51:11;6.80;99.90
21678;DHT22;11000;50.360;7.582;2024-02-26T06:53:32;6.80;99.90
21678;DHT22;11000;50.360;7.582;2024-02-26T06:55:52;6.70;99.90
21678;DHT22;11000;50.360;7.582;2024-02-26T06:58:13;6.80;99.90
21678;DHT22;11000;50.360;7.582;2024-02-26T07:00:35;6.80;99.90
21678;DHT22;11000;50.360;7.582;2024-02-26T07:02:55;6.80;99.90
21678;DHT22;11000;50.360;7.582;2024-02-26T07:05:16;6.80;99.90
21678;DHT22;11000;50.360;7.582;2024-02-26T07:07:36;6.80;99.90
21678;DHT22;11000;50.360;7.582;2024-02-26T07:09:57;6.80;99.90
21678;DHT22;11000;50.360;7.582;2024-02-26T07:12:17;6.80;99.90
21678;DHT22;11000;50.360;7.582;2024-02-26T07:14:39;6.80;99.90
21678;DHT22;11000;50.360;7.582;2024-02-26T07:17:00;6.80;99.90
21678;DHT22;11000;50.360;7.582;2024-02-26T07:19:20;6.80;99.90
21678;DHT22;11000;50.360;7.582;2024-02-26T07:21:41;6.80;99.90
21678;DHT22;11000;50.360;7.582;2024-02-26T07:24:02;6.80;99.90
21678;DHT22;11000;50.360;7.582;2024-02-26T07:26:23;6.80;99.90
21678;DHT22;11000;50.360;7.582;2024-02-26T07:28:45;6.80;99.90
21678;DHT22;11000;50.360;7.582;2024-02-26T07:31:06;6.80;99.90
21678;DHT22;11000;50.360;7.582;2024-02-26T07:33:26;6.70;99.90
21678;DHT22;11000;50.360;7.582;2024-02-26T07:35:47;6.70;99.90
21678;DHT22;11000;50.360;7.582;2024-02-26T07:38:07;6.80;99.90
21678;DHT22;11000;50.360;7.582;2024-02-26T07:40:28;6.80;99.90
21678;DHT22;11000;50.360;7.582;2024-02-26T07:42:48;6.80;99.90
21678;DHT22;11000;50.360;7.582;2024-02-26T07:45:09;6.80;99.90
21678;DHT22;11000;50.360;7.582;2024-02-26T07:47:30;6.80;99.90
21678;DHT22;11000;50.360;7.582;2024-02-26T07:49:51;6.80;99.90
21678;DHT22;11000;50.360;7.582;2024-02-26T07:52:11;6.70;99.90
21678;DHT22;11000;50.360;7.582;2024-02-26T07:54:31;6.70;99.90
21678;DHT22;11000;50.360;7.582;2024-02-26T07:56:52;6.80;99.90
21678;DHT22;11000;50.360;7.582;2024-02-26T07:59:12;6.80;99.90
21678;DHT22;11000;50.360;7.582;2024-02-26T08:01:34;6.80;99.90
21678;DHT22;11000;50.360;7.582;2024-02-26T08:03:55;6.80;99.90
21678;DHT22;11000;50.360;7.582;2024-02-26T08:06:16;6.80;99.90
21678;DHT22;11000;50.360;7.582;2024-02-26T08:08:36;6.80;99.90
21678;DHT22;11000;50.360;7.582;2024-02-26T08:10:57;6.80;99.90
21678;DHT22;11000;50.360;7.582;2024-02-26T08:13:17;6.80;99.90
21678;DHT22;11000;50.360;7.582;2024-02-26T08:15:38;6.90;99.90
21678;DHT22;11000;50.360;7.582;2024-02-26T08:17:58;6.90;99.90
21678;DHT22;11000;50.360;7.582;2024-02-26T08:20:20;6.90;99.90
21678;DHT22;11000;50.360;7.582;2024-02-26T08:22:41;6.90;99.90
21678;DHT22;11000;50.360;7.582;2024-02-26T08:25:01;6.90;99.90
21678;DHT22;11000;50.360;7.582;2024-02-26T08:27:26;6.80;99.90
21678;DHT22;11000;50.360;7.582;2024-02-26T08:29:47;6.90;99.90
21678;DHT22;11000;50.360;7.582;2024-02-26T08:32:07;6.90;99.90
21678;DHT22;11000;50.360;7.582;2024-02-26T08:34:28;6.90;99.90
21678;DHT22;11000;50.360;7.582;2024-02-26T08:36:48;7.00;99.90
21678;DHT22;11000;50.360;7.582;2024-02-26T08:39:09;7.00;99.90
21678;DHT22;11000;50.360;7.582;2024-02-26T08:41:30;7.00;99.90
21678;DHT22;11000;50.360;7.582;2024-02-26T08:43:50;6.90;99.90
21678;DHT22;11000;50.360;7.582;2024-02-26T08:46:12;6.90;99.90
21678;DHT22;11000;50.360;7.582;2024-02-26T08:48:33;6.80;99.90
21678;DHT22;11000;50.360;7.582;2024-02-26T08:50:53;6.80;99.90
21678;DHT22;11000;50.360;7.582;2024-02-26T08:53:14;6.90;99.90
21678;DHT22;11000;50.360;7.582;2024-02-26T08:55:34;6.80;99.90
21678;DHT22;11000;50.360;7.582;2024-02-26T08:57:56;6.90;99.90
21678;DHT22;11000;50.360;7.582;2024-02-26T09:00:17;6.90;99.90
21678;DHT22;11000;50.360;7.582;2024-02-26T09:02:39;6.90;99.90
21678;DHT22;11000;50.360;7.582;2024-02-26T09:05:00;6.90;99.90
21678;DHT22;11000;50.360;7.582;2024-02-26T09:07:21;6.90;99.90
21678;DHT22;11000;50.360;7.582;2024-02-26T09:09:42;6.80;99.90
21678;DHT22;11000;50.360;7.582;2024-02-26T09:12:03;6.80;99.90
21678;DHT22;11000;50.360;7.582;2024-02-26T09:14:23;6.90;99.90
21678;DHT22;11000;50.360;7.582;2024-02-26T09:16:44;7.00;99.90
21678;DHT22;11000;50.360;7.582;2024-02-26T09:19:04;7.00;99.90
21678;DHT22;11000;50.360;7.582;2024-02-26T09:21:25;7.10;99.90
21678;DHT22;11000;50.360;7.582;2024-02-26T09:23:46;7.00;99.90
21678;DHT22;11000;50.360;7.582;2024-02-26T09:26:06;7.10;99.90
21678;DHT22;11000;50.360;7.582;2024-02-26T09:28:27;7.20;99.90
21678;DHT22;11000;50.360;7.582;2024-02-26T09:30:48;7.20;99.90
21678;DHT22;11000;50.360;7.582;2024-02-26T09:33:09;7.20;99.90
21678;DHT22;11000;50.360;7.582;2024-02-26T09:35:30;7.20;99.90
21678;DHT22;11000;50.360;7.582;2024-02-26T09:37:50;7.10;99.90
21678;DHT22;11000;50.360;7.582;2024-02-26T09:40:11;7.00;99.90
21678;DHT22;11000;50.360;7.582;2024-02-26T09:42:34;7.00;99.90
21678;DHT22;11000;50.360;7.582;2024-02-26T09:44:55;7.10;99.90
21678;DHT22;11000;50.360;7.582;2024-02-26T09:47:17;7.30;99.90
21678;DHT22;11000;50.360;7.582;2024-02-26T09:49:40;7.20;99.90
21678;DHT22;11000;50.360;7.582;2024-02-26T09:52:04;7.30;99.90
21678;DHT22;11000;50.360;7.582;2024-02-26T09:54:25;7.40;99.90
21678;DHT22;11000;50.360;7.582;2024-02-26T09:56:50;7.40;99.90
21678;DHT22;11000;50.360;7.582;2024-02-26T09:59:15;7.40;99.90
21678;DHT22;11000;50.360;7.582;2024-02-26T10:01:38;7.50;99.90
21678;DHT22;11000;50.360;7.582;2024-02-26T10:04:01;7.60;99.90
21678;DHT22;11000;50.360;7.582;2024-02-26T10:06:25;7.70;99.90
21678;DHT22;11000;50.360;7.582;2024-02-26T10:08:47;7.70;99.90
21678;DHT22;11000;50.360;7.582;2024-02-26T10:11:10;7.70;99.90
21678;DHT22;11000;50.360;7.582;2024-02-26T10:13:30;7.80;99.90
21678;DHT22;11000;50.360;7.582;2024-02-26T10:15:51;7.90;99.90
21678;DHT22;11000;50.360;7.582;2024-02-26T10:18:11;8.00;99.90
21678;DHT22;11000;50.360;7.582;2024-02-26T10:20:32;8.10;99.90
21678;DHT22;11000;50.360;7.582;2024-02-26T10:22:53;8.00;99.90
21678;DHT22;11000;50.360;7.582;2024-02-26T10:25:14;8.10;99.90
21678;DHT22;11000;50.360;7.582;2024-02-26T10:27:35;8.30;99.90
21678;DHT22;11000;50.360;7.582;2024-02-26T10:30:03;8.50;99.90
21678;DHT22;11000;50.360;7.582;2024-02-26T10:32:24;8.30;99.90
21678;DHT22;11000;50.360;7.582;2024-02-26T10:34:44;8.20;99.90
21678;DHT22;11000;50.360;7.582;2024-02-26T10:37:05;8.20;99.90
21678;DHT22;11000;50.360;7.582;2024-02-26T10:39:26;8.00;99.90
21678;DHT22;11000;50.360;7.582;2024-02-26T10:41:46;7.80;99.90
21678;DHT22;11000;50.360;7.582;2024-02-26T10:44:09;7.70;99.90
21678;DHT22;11000;50.360;7.582;2024-02-26T10:46:30;7.80;99.90
21678;DHT22;11000;50.360;7.582;2024-02-26T10:48:52;7.80;99.90
21678;DHT22;11000;50.360;7.582;2024-02-26T10:51:13;7.80;99.90
21678;DHT22;11000;50.360;7.582;2024-02-26T10:53:35;7.90;99.90
21678;DHT22;11000;50.360;7.582;2024-02-26T10:56:04;7.90;99.90
21678;DHT22;11000;50.360;7.582;2024-02-26T10:58:26;8.00;99.90
21678;DHT22;11000;50.360;7.582;2024-02-26T11:00:49;8.20;99.90
21678;DHT22;11000;50.360;7.582;2024-02-26T11:03:11;8.20;99.90
21678;DHT22;11000;50.360;7.582;2024-02-26T11:05:33;8.30;99.90
21678;DHT22;11000;50.360;7.582;2024-02-26T11:07:54;8.20;99.90
21678;DHT22;11000;50.360;7.582;2024-02-26T11:10:15;8.10;99.90
21678;DHT22;11000;50.360;7.582;2024-02-26T11:12:39;8.10;99.90
21678;DHT22;11000;50.360;7.582;2024-02-26T11:15:00;8.20;99.90
21678;DHT22;11000;50.360;7.582;2024-02-26T11:17:22;8.30;99.90
21678;DHT22;11000;50.360;7.582;2024-02-26T11:19:44;8.40;99.90
21678;DHT22;11000;50.360;7.582;2024-02-26T11:22:05;8.20;99.90
21678;DHT22;11000;50.360;7.582;2024-02-26T11:24:25;8.10;99.90
21678;DHT22;11000;50.360;7.582;2024-02-26T11:26:50;8.10;99.90
21678;DHT22;11000;50.360;7.582;2024-02-26T11:29:21;8.20;99.90
21678;DHT22;11000;50.360;7.582;2024-02-26T11:31:42;8.20;99.90
21678;DHT22;11000;50.360;7.582;2024-02-26T11:34:03;8.10;99.90
21678;DHT22;11000;50.360;7.582;2024-02-26T11:36:24;8.10;99.90
21678;DHT22;11000;50.360;7.582;2024-02-26T11:38:44;8.10;99.90
21678;DHT22;11000;50.360;7.582;2024-02-26T11:41:08;8.20;99.90
21678;DHT22;11000;50.360;7.582;2024-02-26T11:43:49;8.30;99.90
21678;DHT22;11000;50.360;7.582;2024-02-26T11:46:28;8.40;99.90
21678;DHT22;11000;50.360;7.582;2024-02-26T11:48:50;8.50;99.90
21678;DHT22;11000;50.360;7.582;2024-02-26T11:51:11;8.50;99.90
21678;DHT22;11000;50.360;7.582;2024-02-26T11:53:31;8.60;99.90
21678;DHT22;11000;50.360;7.582;2024-02-26T11:58:39;8.70;99.90
21678;DHT22;11000;50.360;7.582;2024-02-26T12:01:02;8.80;99.90
21678;DHT22;11000;50.360;7.582;2024-02-26T12:03:24;8.80;99.90
21678;DHT22;11000;50.360;7.582;2024-02-26T12:05:45;8.80;99.90
21678;DHT22;11000;50.360;7.582;2024-02-26T12:08:07;8.80;99.90
21678;DHT22;11000;50.360;7.582;2024-02-26T12:10:31;8.80;99.90
21678;DHT22;11000;50.360;7.582;2024-02-26T12:12:59;8.90;99.90
21678;DHT22;11000;50.360;7.582;2024-02-26T12:15:23;8.80;99.90
21678;DHT22;11000;50.360;7.582;2024-02-26T12:17:48;8.70;99.90
21678;DHT22;11000;50.360;7.582;2024-02-26T12:20:10;8.60;99.90
21678;DHT22;11000;50.360;7.582;2024-02-26T12:22:31;8.80;99.90
21678;DHT22;11000;50.360;7.582;2024-02-26T12:25:01;8.80;99.90
21678;DHT22;11000;50.360;7.582;2024-02-26T12:27:23;8.90;99.90
21678;DHT22;11000;50.360;7.582;2024-02-26T12:29:43;8.90;99.90
21678;DHT22;11000;50.360;7.582;2024-02-26T12:32:04;8.90;99.90
21678;DHT22;11000;50.360;7.582;2024-02-26T12:34:25;8.90;99.90
21678;DHT22;11000;50.360;7.582;2024-02-26T12:36:46;8.90;99.90
21678;DHT22;11000;50.360;7.582;2024-02-26T12:39:07;8.80;99.90
21678;DHT22;11000;50.360;7.582;2024-02-26T12:41:28;8.70;99.90
21678;DHT22;11000;50.360;7.582;2024-02-26T12:43:53;8.80;99.90
21678;DHT22;11000;50.360;7.582;2024-02-26T12:46:13;8.70;99.90
21678;DHT22;11000;50.360;7.582;2024-02-26T12:48:35;8.60;99.90
21678;DHT22;11000;50.360;7.582;2024-02-26T12:50:56;8.60;99.90
21678;DHT22;11000;50.360;7.582;2024-02-26T12:53:17;8.60;99.90
21678;DHT22;11000;50.360;7.582;2024-02-26T12:55:38;8.60;99.90
21678;DHT22;11000;50.360;7.582;2024-02-26T12:58:00;8.60;99.90
21678;DHT22;11000;50.360;7.582;2024-02-26T13:00:24;8.60;99.90
21678;DHT22;11000;50.360;7.582;2024-02-26T13:02:45;8.70;99.90
21678;DHT22;11000;50.360;7.582;2024-02-26T13:05:07;8.70;99.90
21678;DHT22;11000;50.360;7.582;2024-02-26T13:07:28;8.60;99.90
21678;DHT22;11000;50.360;7.582;2024-02-26T13:09:49;8.70;99.90
21678;DHT22;11000;50.360;7.582;2024-02-26T13:12:12;8.70;99.90
21678;DHT22;11000;50.360;7.582;2024-02-26T13:14:33;8.70;99.90
21678;DHT22;11000;50.360;7.582;2024-02-26T13:16:57;8.80;99.90
21678;DHT22;11000;50.360;7.582;2024-02-26T13:19:18;8.80;99.90
21678;DHT22;11000;50.360;7.582;2024-02-26T13:21:38;8.70;99.90
21678;DHT22;11000;50.360;7.582;2024-02-26T13:23:59;8.80;99.90
21678;DHT22;11000;50.360;7.582;2024-02-26T13:26:22;8.80;99.90
21678;DHT22;11000;50.360;7.582;2024-02-26T13:28:43;8.70;99.90
21678;DHT22;11000;50.360;7.582;2024-02-26T13:31:05;8.70;99.90
21678;DHT22;11000;50.360;7.582;2024-02-26T13:33:28;8.70;99.90
21678;DHT22;11000;50.360;7.582;2024-02-26T13:35:50;8.70;99.90
21678;DHT22;11000;50.360;7.582;2024-02-26T13:38:11;8.80;99.90
21678;DHT22;11000;50.360;7.582;2024-02-26T13:40:32;8.70;99.90
21678;DHT22;11000;50.360;7.582;2024-02-26T13:42:54;8.70;99.90
21678;DHT22;11000;50.360;7.582;2024-02-26T13:45:14;8.70;99.90
21678;DHT22;11000;50.360;7.582;2024-02-26T13:47:35;8.70;99.90
21678;DHT22;11000;50.360;7.582;2024-02-26T13:49:56;8.70;99.90
21678;DHT22;11000;50.360;7.582;2024-02-26T13:52:16;8.70;99.90
21678;DHT22;11000;50.360;7.582;2024-02-26T13:54:37;8.70;99.90
21678;DHT22;11000;50.360;7.582;2024-02-26T13:56:59;8.70;99.90
21678;DHT22;11000;50.360;7.582;2024-02-26T13:59:19;8.80;99.90
21678;DHT22;11000;50.360;7.582;2024-02-26T14:01:40;8.70;99.90
21678;DHT22;11000;50.360;7.582;2024-02-26T14:04:00;8.70;99.90
21678;DHT22;11000;50.360;7.582;2024-02-26T14:06:22;8.80;99.90
21678;DHT22;11000;50.360;7.582;2024-02-26T14:08:43;8.80;99.90
21678;DHT22;11000;50.360;7.582;2024-02-26T14:11:04;8.80;99.90
21678;DHT22;11000;50.360;7.582;2024-02-26T14:13:24;8.80;99.90
21678;DHT22;11000;50.360;7.582;2024-02-26T14:15:45;8.90;99.90
21678;DHT22;11000;50.360;7.582;2024-02-26T14:18:07;8.80;99.90
21678;DHT22;11000;50.360;7.582;2024-02-26T14:20:28;8.90;99.90
21678;DHT22;11000;50.360;7.582;2024-02-26T14:22:49;8.90;99.90
21678;DHT22;11000;50.360;7.582;2024-02-26T14:25:10;9.00;99.90
21678;DHT22;11000;50.360;7.582;2024-02-26T14:27:31;9.00;99.90
21678;DHT22;11000;50.360;7.582;2024-02-26T14:29:51;9.10;99.90
21678;DHT22;11000;50.360;7.582;2024-02-26T14:32:12;9.00;99.90
21678;DHT22;11000;50.360;7.582;2024-02-26T14:34:33;9.10;99.90
21678;DHT22;11000;50.360;7.582;2024-02-26T14:36:53;9.20;99.90
21678;DHT22;11000;50.360;7.582;2024-02-26T14:39:14;9.20;99.90
21678;DHT22;11000;50.360;7.582;2024-02-26T14:41:34;9.20;99.90
21678;DHT22;11000;50.360;7.582;2024-02-26T14:43:55;9.30;99.90
21678;DHT22;11000;50.360;7.582;2024-02-26T14:46:15;9.20;99.90
21678;DHT22;11000;50.360;7.582;2024-02-26T14:48:36;9.10;99.90
21678;DHT22;11000;50.360;7.582;2024-02-26T14:50:56;9.10;99.90
21678;DHT22;11000;50.360;7.582;2024-02-26T14:53:17;9.10;99.90
21678;DHT22;11000;50.360;7.582;2024-02-26T14:55:38;9.10;99.90
21678;DHT22;11000;50.360;7.582;2024-02-26T14:57:58;9.10;99.90
21678;DHT22;11000;50.360;7.582;2024-02-26T15:00:19;9.10;99.90
21678;DHT22;11000;50.360;7.582;2024-02-26T15:02:40;9.20;99.90
21678;DHT22;11000;50.360;7.582;2024-02-26T15:05:00;9.20;99.90
21678;DHT22;11000;50.360;7.582;2024-02-26T15:07:21;9.20;99.90